Springport, Michigan
Current Conditions -  °F | °C
As of 9:54 AM on Tuesday 21 Oct 2014 (Local Time) from KFPK Reporting Station
Overcast Overcast  
Wind Chill: 43°   Ceiling: 3400
Heat Index: 48°   Visibility: 10mi
Dew Point: 44°   Wind: 9mph
Humidity: 86%   Direction: 10°N
Pressure: 30.04"   Gusts: NA
Location:  42.38°N, 84.7°W
Report Text: KFPK 211354Z AUTO 01008KT 10SM BKN034 OVC040 09/06 A3004 RMK AO2 T00870064
Loading
Personal Weather Stations






























Interactive Weather Map
Tropical Storm Tracking
New forecast layout! Learn more

10-Day Weather Forecast

Advertisements
Track Severe Weather on mobile